KMSP/MSP METAR and TAF weather

Enter ICAO airport designator
Station Type Date Time Source
KMSP METAR 2019/10/21 02:53 UTC NOAA

KMSP 210253Z 12010KT 10SM FEW110 OVC150 14/04 A2981 RMK AO2 SLP096 T01390039 51002 $


Station Type Date Time Source
KMSP Decoded METAR 2019/10/21 02:53 UTC NOAA

MINNEAPOLIS-ST PAUL INTERNATIONAL , MN, United States (KMSP) 44-52N 93-13W 265M
Oct 20, 2019 - 10:53 PM EDT / 2019.10.21 0253 UTC
Wind: from the ESE (120 degrees) at 12 MPH (10 KT):0
Visibility: 10 mile(s):0
Sky conditions: overcast
Temperature: 57.0 F (13.9 C)
Dew Point: 39.0 F (3.9 C)
Relative Humidity: 50%
Pressure (altimeter): 29.81 in. Hg (1009 hPa)
Pressure tendency: 0.01 inches (0.2 hPa) higher than three hours ago
ob: KMSP 210253Z 12010KT 10SM FEW110 OVC150 14/04 A2981 RMK AO2 SLP096 T01390039 51002
cycle: 3

Station Type Date Time Source
KMSP TAF 2019/10/21 03:48 UTC NOAA

TAF
AMD KMSP 210247Z 2103/2206 11010KT P6SM OVC120
FM210900 09012G20KT P6SM VCSH OVC070
FM211100 08017G25KT 5SM SHRA BR OVC014
FM211400 09011KT 2SM SHRA BR OVC009
FM211900 17006KT P6SM OVC012
FM212100 22008KT P6SM VCSH BKN025
FM220400 28013G26KT 4SM -RA BR OVC014

Example: see airport list